Time;durP1;ratioP1;P1;durP2;ratioP2;P2;SDS_P1;SDS_P2;PMS_P1;PMS_P2;Temp;Humidity;BMP_temperature;BMP_pressure;BME280_temperature;BME280_humidity;BME280_pressure;Samples;Min_cycle;Max_cycle;Signal;HPM_P1;HPM_P2
2021/12/01 00:02:13;;;;;;;5.03;4.63;;;10.70;99.90;;;;;;4974331;28;20256;-83
2021/12/01 00:04:42;;;;;;;5.07;4.70;;;10.70;99.90;;;;;;4973818;28;20261;-84
2021/12/01 00:07:08;;;;;;;4.68;4.38;;;10.80;99.90;;;;;;4973742;28;20192;-83
2021/12/01 00:09:37;;;;;;;5.93;4.65;;;10.80;99.90;;;;;;4973739;28;20588;-84
2021/12/01 00:12:03;;;;;;;3.90;3.60;;;10.70;99.90;;;;;;4974134;28;20261;-90
2021/12/01 00:14:29;;;;;;;5.15;4.75;;;10.60;99.90;;;;;;4974104;28;20743;-83
2021/12/01 00:16:54;;;;;;;7.55;4.43;;;10.60;99.90;;;;;;4974310;28;20541;-90
2021/12/01 00:19:20;;;;;;;6.25;4.00;;;10.60;99.90;;;;;;4973025;28;20188;-90
2021/12/01 00:21:46;;;;;;;4.03;3.72;;;10.60;99.90;;;;;;4973821;28;20174;-84
2021/12/01 00:24:11;;;;;;;4.28;3.83;;;10.70;99.90;;;;;;4973786;28;20185;-83
2021/12/01 00:26:40;;;;;;;4.47;4.07;;;10.70;99.90;;;;;;4973439;28;20196;-83
2021/12/01 00:29:08;;;;;;;3.10;2.90;;;10.60;99.90;;;;;;4973362;28;20170;-84
2021/12/01 00:31:38;;;;;;;3.40;3.10;;;10.70;99.90;;;;;;4973698;28;20166;-85
2021/12/01 00:34:03;;;;;;;3.05;2.85;;;10.60;99.90;;;;;;4973680;28;20233;-84
2021/12/01 00:36:29;;;;;;;3.20;2.95;;;10.70;99.90;;;;;;4973416;28;20220;-82
2021/12/01 00:38:55;;;;;;;3.05;2.85;;;10.70;99.90;;;;;;4973814;28;20159;-83
2021/12/01 00:41:23;;;;;;;3.03;2.80;;;10.60;99.90;;;;;;4973723;28;20228;-84
2021/12/01 00:44:00;;;;;;;2.80;2.60;;;10.60;99.90;;;;;;4956423;28;20185;-85
2021/12/01 00:49:02;;;;;;;2.92;2.55;;;10.70;99.90;;;;;;4973512;28;20185;-86
2021/12/01 00:51:29;;;;;;;2.92;2.65;;;10.60;99.90;;;;;;4973511;28;20253;-85
2021/12/01 00:54:00;;;;;;;4.43;2.55;;;10.50;99.90;;;;;;4972344;28;20656;-92
2021/12/01 00:56:26;;;;;;;4.03;2.33;;;10.40;99.90;;;;;;4973513;28;20222;-86
2021/12/01 00:58:52;;;;;;;2.58;2.30;;;10.50;99.90;;;;;;4973604;28;20185;-85
2021/12/01 01:01:20;;;;;;;2.10;2.00;;;10.60;99.90;;;;;;4973289;28;20537;-84
2021/12/01 01:03:48;;;;;;;2.33;2.13;;;10.60;99.90;;;;;;4974943;28;20170;-91
2021/12/01 01:06:14;;;;;;;2.15;1.95;;;10.70;99.90;;;;;;4976979;28;20272;-83
2021/12/01 01:08:50;;;;;;;2.53;2.33;;;10.60;99.90;;;;;;4977090;28;20245;-91
2021/12/01 01:16:49;;;;;;;2.00;1.90;;;10.60;99.90;;;;;;4976853;28;20799;-84
2021/12/01 01:19:16;;;;;;;3.55;2.58;;;10.40;99.90;;;;;;4976798;28;20220;-89
2021/12/01 01:21:50;;;;;;;3.08;2.78;;;10.40;99.90;;;;;;4976930;28;20181;-84
2021/12/01 01:24:17;;;;;;;2.45;2.25;;;10.40;99.90;;;;;;4976811;28;20186;-82
2021/12/01 01:26:43;;;;;;;2.80;2.60;;;10.30;99.90;;;;;;4976509;28;20182;-83
2021/12/01 01:29:10;;;;;;;4.20;2.45;;;10.30;99.90;;;;;;4976750;28;20166;-84
2021/12/01 01:31:37;;;;;;;3.08;2.78;;;10.20;99.90;;;;;;4976259;28;20174;-82
2021/12/01 01:34:04;;;;;;;3.03;2.40;;;10.20;99.90;;;;;;4976214;28;20698;-82
2021/12/01 01:36:32;;;;;;;2.78;2.40;;;10.10;99.90;;;;;;4976206;28;20666;-83
2021/12/01 01:39:01;;;;;;;2.55;2.35;;;10.20;99.90;;;;;;4976246;28;20170;-85
2021/12/01 01:41:27;;;;;;;3.05;2.85;;;10.10;99.90;;;;;;4976010;28;20237;-83
2021/12/01 01:43:54;;;;;;;4.13;3.20;;;10.10;99.90;;;;;;4976080;28;20196;-88
2021/12/01 01:46:20;;;;;;;3.08;2.88;;;10.00;99.90;;;;;;4976225;28;20652;-83
2021/12/01 01:48:48;;;;;;;3.25;2.95;;;10.00;99.90;;;;;;4976293;28;20170;-83
2021/12/01 01:51:17;;;;;;;4.50;3.08;;;9.90;99.90;;;;;;4976073;28;20205;-85
2021/12/01 01:53:43;;;;;;;3.55;3.25;;;9.80;99.90;;;;;;4976284;28;20886;-83
2021/12/01 01:56:10;;;;;;;3.63;3.33;;;9.80;99.90;;;;;;4976439;28;20201;-83
2021/12/01 01:58:45;;;;;;;3.10;2.90;;;9.70;99.90;;;;;;4977565;28;20169;-84
2021/12/01 02:03:49;;;;;;;4.13;3.20;;;9.80;99.90;;;;;;4978590;28;20264;-83
2021/12/01 02:06:22;;;;;;;3.95;3.65;;;9.70;99.90;;;;;;4976075;28;20309;-85
2021/12/01 02:08:54;;;;;;;4.25;3.55;;;9.80;99.90;;;;;;4976073;28;20181;-82
2021/12/01 02:11:21;;;;;;;4.40;4.00;;;9.80;99.90;;;;;;4976033;28;20170;-83
2021/12/01 02:13:48;;;;;;;3.35;3.13;;;9.80;99.90;;;;;;4975718;28;20198;-83
2021/12/01 02:16:18;;;;;;;9.25;3.10;;;9.80;99.90;;;;;;4975806;28;20244;-82
2021/12/01 02:18:44;;;;;;;4.63;3.70;;;9.80;99.90;;;;;;4975417;28;20166;-83
2021/12/01 02:21:13;;;;;;;8.55;3.60;;;9.90;99.90;;;;;;4975883;28;20166;-89
2021/12/01 02:23:46;;;;;;;9.88;4.72;;;9.90;99.90;;;;;;4975858;28;20181;-87
2021/12/01 02:26:14;;;;;;;4.13;3.78;;;9.90;99.90;;;;;;4976384;28;20193;-90
2021/12/01 02:28:42;;;;;;;5.63;3.03;;;9.90;99.90;;;;;;4976213;28;20176;-90
2021/12/01 02:31:08;;;;;;;4.47;3.92;;;9.90;99.90;;;;;;4976121;28;20173;-83
2021/12/01 02:33:37;;;;;;;3.78;3.50;;;9.90;99.90;;;;;;4975584;28;20182;-84
2021/12/01 02:36:03;;;;;;;4.35;3.53;;;9.80;99.90;;;;;;4975561;28;20640;-87
2021/12/01 02:38:29;;;;;;;3.50;3.17;;;9.80;99.90;;;;;;4976041;28;20173;-86
2021/12/01 02:40:55;;;;;;;4.10;3.70;;;9.70;99.90;;;;;;4975934;28;20170;-89
2021/12/01 02:43:24;;;;;;;3.60;3.28;;;9.80;99.90;;;;;;4975834;28;20264;-87
2021/12/01 02:45:54;;;;;;;3.97;3.67;;;9.90;99.90;;;;;;4975687;28;20926;-94
2021/12/01 02:48:22;;;;;;;6.00;4.47;;;9.90;99.90;;;;;;4975718;28;20170;-87
2021/12/01 02:50:48;;;;;;;4.55;4.15;;;9.80;99.90;;;;;;4975347;28;20170;-84
2021/12/01 02:53:19;;;;;;;4.53;4.00;;;9.80;99.90;;;;;;4975468;28;20158;-82
2021/12/01 02:55:57;;;;;;;3.63;3.33;;;9.80;99.90;;;;;;4975243;28;20201;-91
2021/12/01 02:58:29;;;;;;;3.63;3.33;;;9.90;99.90;;;;;;4975002;28;20168;-89
2021/12/01 03:01:12;;;;;;;3.45;3.15;;;9.90;99.90;;;;;;4974834;28;20177;-84
2021/12/01 03:03:41;;;;;;;10.77;3.05;;;9.80;99.90;;;;;;4974809;28;20669;-85
2021/12/01 03:06:08;;;;;;;4.32;3.38;;;9.70;99.90;;;;;;4974786;28;20193;-83
2021/12/01 03:08:35;;;;;;;5.47;3.20;;;9.60;99.90;;;;;;4974727;28;20193;-91
2021/12/01 03:11:07;;;;;;;6.15;3.60;;;9.60;99.90;;;;;;4974853;28;20166;-84
2021/12/01 03:13:33;;;;;;;5.45;2.70;;;9.60;99.90;;;;;;4974846;28;20174;-89
2021/12/01 03:16:02;;;;;;;4.03;2.90;;;9.60;99.90;;;;;;4958442;28;20245;-93
2021/12/01 03:18:28;;;;;;;3.72;2.42;;;9.60;99.90;;;;;;4975634;28;20699;-93
2021/12/01 03:20:54;;;;;;;5.00;3.25;;;9.70;99.90;;;;;;4975829;28;20166;-93
2021/12/01 03:23:21;;;;;;;4.72;2.80;;;9.70;99.90;;;;;;4976035;28;20178;-92
2021/12/01 03:26:19;;;;;;;2.78;2.55;;;9.60;99.90;;;;;;4975112;28;20194;-92
2021/12/01 03:28:44;;;;;;;4.82;2.30;;;9.60;99.90;;;;;;4968117;28;20209;-92
2021/12/01 03:31:10;;;;;;;5.22;2.55;;;9.60;99.90;;;;;;4975744;28;20190;-92
2021/12/01 03:33:39;;;;;;;2.25;1.77;;;9.50;99.90;;;;;;4975845;28;20165;-92
2021/12/01 03:36:11;;;;;;;2.13;2.03;;;9.50;99.90;;;;;;4975787;28;20205;-91
2021/12/01 03:38:37;;;;;;;3.85;2.17;;;9.50;99.90;;;;;;4975885;28;20639;-91
2021/12/01 03:41:05;;;;;;;3.00;2.10;;;9.40;99.90;;;;;;4975798;28;20166;-91
2021/12/01 03:43:30;;;;;;;2.38;1.85;;;9.40;99.90;;;;;;4975564;28;20154;-91
2021/12/01 03:45:56;;;;;;;5.07;1.83;;;9.40;99.90;;;;;;4975250;28;20671;-92
2021/12/01 03:48:23;;;;;;;2.15;1.95;;;9.40;99.90;;;;;;4975382;28;20177;-92
2021/12/01 03:50:49;;;;;;;1.98;1.77;;;9.40;99.90;;;;;;4975571;28;20173;-92
2021/12/01 03:53:20;;;;;;;8.25;2.10;;;9.50;99.90;;;;;;4957891;28;20174;-91
2021/12/01 03:55:47;;;;;;;2.35;1.80;;;9.50;99.90;;;;;;4975401;28;20747;-91
2021/12/01 03:58:12;;;;;;;1.95;1.73;;;9.50;99.90;;;;;;4975394;28;20691;-91
2021/12/01 04:00:39;;;;;;;1.45;1.35;;;9.40;99.90;;;;;;4974280;28;20177;-90
2021/12/01 04:03:05;;;;;;;2.42;1.50;;;9.50;99.90;;;;;;4975340;28;20221;-91
2021/12/01 04:05:31;;;;;;;1.50;1.40;;;9.40;99.90;;;;;;4975187;28;20261;-92
2021/12/01 04:08:01;;;;;;;1.58;1.35;;;9.40;99.90;;;;;;4975107;28;20166;-92
2021/12/01 04:10:28;;;;;;;1.48;1.13;;;9.40;99.90;;;;;;4975472;28;20174;-90
2021/12/01 04:12:54;;;;;;;1.08;1.05;;;9.50;99.90;;;;;;4975044;28;20216;-88
2021/12/01 04:15:20;;;;;;;3.05;1.35;;;9.50;99.90;;;;;;4975120;28;20217;-93
2021/12/01 04:17:49;;;;;;;2.80;1.27;;;9.60;99.90;;;;;;4975231;28;20169;-91
2021/12/01 04:20:16;;;;;;;1.13;1.08;;;9.50;99.90;;;;;;4975164;28;20701;-92
2021/12/01 04:22:44;;;;;;;3.72;1.02;;;9.60;99.90;;;;;;4976565;28;20231;-92
2021/12/01 04:25:10;;;;;;;1.67;1.00;;;9.60;99.90;;;;;;4962526;28;20170;-88
2021/12/01 04:27:39;;;;;;;1.20;0.80;;;9.70;99.90;;;;;;4996663;28;20186;-92
2021/12/01 04:30:09;;;;;;;2.58;1.20;;;9.60;99.90;;;;;;4980504;28;20648;-92
2021/12/01 04:32:35;;;;;;;1.70;1.00;;;9.60;99.90;;;;;;4975271;28;20169;-93
2021/12/01 04:35:03;;;;;;;3.60;1.40;;;9.50;99.90;;;;;;4974689;28;20203;-92
2021/12/01 04:37:29;;;;;;;4.07;1.20;;;9.50;99.90;;;;;;4974623;28;20548;-88
2021/12/01 04:40:20;;;;;;;2.00;1.60;;;9.40;99.90;;;;;;4979253;28;20178;-92
2021/12/01 04:42:46;;;;;;;1.80;1.58;;;9.40;99.90;;;;;;4978909;28;20237;-92
2021/12/01 04:45:14;;;;;;;3.10;2.33;;;9.40;99.90;;;;;;4979039;28;20209;-93
2021/12/01 04:47:43;;;;;;;3.63;3.10;;;9.40;99.90;;;;;;4978490;28;20543;-88
2021/12/01 04:50:10;;;;;;;4.57;3.60;;;9.30;99.90;;;;;;4979031;28;20178;-92
2021/12/01 04:52:35;;;;;;;8.02;5.53;;;9.40;99.90;;;;;;4962115;28;20199;-92
2021/12/01 04:55:01;;;;;;;6.70;4.35;;;9.30;99.90;;;;;;4979817;28;20248;-91
2021/12/01 04:57:27;;;;;;;8.82;4.85;;;9.30;99.90;;;;;;4979093;28;20198;-92
2021/12/01 04:59:53;;;;;;;5.80;3.55;;;9.30;99.90;;;;;;4978807;28;20166;-91
2021/12/01 05:02:18;;;;;;;7.43;3.67;;;9.30;99.90;;;;;;4961380;28;20174;-93
2021/12/01 05:04:44;;;;;;;3.90;2.90;;;9.40;99.90;;;;;;4978649;28;20256;-91
2021/12/01 05:07:10;;;;;;;4.22;3.55;;;9.30;99.90;;;;;;4978250;28;20190;-91
2021/12/01 05:09:42;;;;;;;4.70;2.70;;;9.30;99.90;;;;;;4979004;28;20170;-91
2021/12/01 05:12:09;;;;;;;6.28;3.35;;;9.20;99.90;;;;;;4978657;28;20163;-92
2021/12/01 05:14:35;;;;;;;3.90;2.35;;;9.30;99.90;;;;;;4978445;28;20249;-92
2021/12/01 05:17:01;;;;;;;5.03;2.10;;;9.30;99.90;;;;;;4978142;28;20699;-89
2021/12/01 05:19:27;;;;;;;3.42;2.25;;;9.30;99.90;;;;;;4978358;28;20178;-90
2021/12/01 05:22:06;;;;;;;3.67;1.95;;;9.40;99.90;;;;;;4977931;28;20169;-92
2021/12/01 05:24:46;;;;;;;3.05;1.90;;;9.40;99.90;;;;;;4977702;28;20181;-89
2021/12/01 05:27:11;;;;;;;2.67;1.90;;;9.30;99.90;;;;;;4977888;28;20196;-86
2021/12/01 05:29:40;;;;;;;1.42;1.33;;;9.30;99.90;;;;;;4961022;28;20170;-92
2021/12/01 05:32:06;;;;;;;2.90;1.48;;;9.30;99.90;;;;;;4978151;28;20174;-90
2021/12/01 05:34:32;;;;;;;0.90;0.90;;;9.30;99.90;;;;;;4978035;28;20710;-92
2021/12/01 05:37:00;;;;;;;1.25;1.15;;;9.30;99.90;;;;;;4977965;28;20294;-93
2021/12/01 05:39:29;;;;;;;3.03;1.15;;;9.30;99.90;;;;;;4980669;28;20173;-89
2021/12/01 05:41:55;;;;;;;3.67;0.90;;;9.30;99.90;;;;;;4978809;28;20166;-93
2021/12/01 05:44:24;;;;;;;0.98;0.98;;;9.30;99.90;;;;;;4978033;28;20174;-89
2021/12/01 05:46:50;;;;;;;1.15;0.88;;;9.30;99.90;;;;;;4977526;28;20189;-88
2021/12/01 05:49:16;;;;;;;1.55;0.88;;;9.40;99.90;;;;;;4978150;28;20232;-92
2021/12/01 05:51:43;;;;;;;3.83;1.00;;;9.40;99.90;;;;;;4979059;28;20216;-88
2021/12/01 05:54:09;;;;;;;6.45;1.00;;;9.40;99.90;;;;;;4977356;28;20341;-91
2021/12/01 05:56:35;;;;;;;0.95;0.80;;;9.30;99.90;;;;;;4977590;28;20186;-89
2021/12/01 05:59:00;;;;;;;1.67;1.00;;;9.40;99.90;;;;;;4977936;28;20178;-91
2021/12/01 06:01:26;;;;;;;0.88;0.88;;;9.30;99.90;;;;;;4977538;28;20628;-93
2021/12/01 06:03:52;;;;;;;1.38;1.20;;;9.40;99.90;;;;;;4977680;28;20233;-91
2021/12/01 06:06:17;;;;;;;1.30;1.20;;;9.40;99.90;;;;;;4978548;28;20723;-89
2021/12/01 06:08:43;;;;;;;1.30;0.90;;;9.40;99.90;;;;;;4978586;28;20173;-91
2021/12/01 06:11:09;;;;;;;1.55;0.90;;;9.40;99.90;;;;;;4978248;28;20170;-91
2021/12/01 06:13:38;;;;;;;6.55;1.23;;;9.40;99.90;;;;;;4978366;28;20170;-91
2021/12/01 06:16:03;;;;;;;2.47;1.23;;;9.40;99.90;;;;;;4977696;28;20272;-92
2021/12/01 06:18:30;;;;;;;2.40;1.00;;;9.50;99.90;;;;;;4978924;28;20166;-92
2021/12/01 06:20:57;;;;;;;1.00;1.00;;;9.50;99.90;;;;;;4978222;28;20178;-91
2021/12/01 06:23:24;;;;;;;2.13;1.20;;;9.50;99.90;;;;;;4977272;28;20265;-93
2021/12/01 06:25:49;;;;;;;0.85;0.85;;;9.50;99.90;;;;;;4977082;28;20193;-86
2021/12/01 06:28:15;;;;;;;2.13;0.90;;;9.50;99.90;;;;;;4976984;28;20177;-86
2021/12/01 06:30:41;;;;;;;1.90;1.00;;;9.50;99.90;;;;;;4976635;28;20205;-86
2021/12/01 06:33:07;;;;;;;0.90;0.90;;;9.50;99.90;;;;;;4960236;28;20269;-86
2021/12/01 06:35:34;;;;;;;1.08;1.00;;;9.50;99.90;;;;;;4976416;28;20668;-83
2021/12/01 06:38:01;;;;;;;1.70;0.90;;;9.50;99.90;;;;;;4976377;28;20169;-84
2021/12/01 06:40:30;;;;;;;0.80;0.75;;;9.60;99.90;;;;;;4976518;28;20165;-86
2021/12/01 06:42:55;;;;;;;1.02;1.00;;;9.60;99.90;;;;;;4976680;28;20162;-86
2021/12/01 06:45:21;;;;;;;0.90;0.90;;;9.60;99.90;;;;;;4976470;28;20229;-85
2021/12/01 06:47:47;;;;;;;3.55;0.80;;;9.60;99.90;;;;;;4976704;28;20197;-86
2021/12/01 06:50:14;;;;;;;1.83;0.90;;;9.60;99.90;;;;;;4976507;28;20169;-86
2021/12/01 06:52:40;;;;;;;0.85;0.80;;;9.60;99.90;;;;;;4976194;28;20180;-86
2021/12/01 06:55:08;;;;;;;0.70;0.70;;;9.60;99.90;;;;;;4976679;28;20201;-86
2021/12/01 06:57:34;;;;;;;1.40;1.20;;;9.60;99.90;;;;;;4976131;28;20194;-84
2021/12/01 07:00:00;;;;;;;1.00;0.95;;;9.60;99.90;;;;;;4976487;28;20192;-87
2021/12/01 07:02:26;;;;;;;1.30;0.80;;;9.60;99.90;;;;;;4975856;28;20525;-86
2021/12/01 07:04:52;;;;;;;0.80;0.80;;;9.70;99.90;;;;;;4976363;28;20193;-87
2021/12/01 07:07:18;;;;;;;1.05;0.80;;;9.80;99.90;;;;;;4958846;28;20661;-87
2021/12/01 07:09:46;;;;;;;1.10;0.98;;;9.80;99.90;;;;;;4976487;28;20181;-86
2021/12/01 07:12:12;;;;;;;0.65;0.65;;;9.80;99.90;;;;;;4976423;28;20217;-87
2021/12/01 07:14:38;;;;;;;1.20;0.90;;;9.80;99.90;;;;;;4975701;28;20209;-86
2021/12/01 07:17:05;;;;;;;0.70;0.70;;;9.80;99.90;;;;;;4975612;28;20186;-86
2021/12/01 07:19:31;;;;;;;0.73;0.70;;;9.90;99.90;;;;;;4975657;28;20523;-85
2021/12/01 07:21:57;;;;;;;1.00;0.90;;;9.80;99.90;;;;;;4975996;28;20170;-86
2021/12/01 07:24:22;;;;;;;0.80;0.80;;;9.90;99.90;;;;;;4975904;28;20174;-85
2021/12/01 07:26:48;;;;;;;0.57;0.57;;;9.90;99.90;;;;;;4975467;28;20268;-86
2021/12/01 07:29:15;;;;;;;1.63;0.75;;;9.90;99.90;;;;;;4958400;28;20176;-85
2021/12/01 07:31:40;;;;;;;0.68;0.68;;;9.90;99.90;;;;;;4975399;28;20188;-83
2021/12/01 07:34:06;;;;;;;1.00;0.90;;;9.90;99.90;;;;;;4958456;28;20214;-86
2021/12/01 07:36:32;;;;;;;1.15;1.15;;;9.90;99.90;;;;;;4975418;28;20645;-86
2021/12/01 07:38:59;;;;;;;1.65;1.40;;;9.90;99.90;;;;;;4973611;28;20173;-79
2021/12/01 07:41:26;;;;;;;1.00;1.00;;;9.90;99.90;;;;;;4975082;28;20176;-85
2021/12/01 07:43:51;;;;;;;2.08;1.33;;;9.90;99.90;;;;;;4975018;28;20174;-86
2021/12/01 07:46:17;;;;;;;1.50;1.35;;;10.00;99.90;;;;;;4957939;28;20241;-86
2021/12/01 07:48:49;;;;;;;1.40;1.30;;;10.10;99.90;;;;;;4974842;28;20617;-84
2021/12/01 07:51:15;;;;;;;1.33;1.20;;;10.10;99.90;;;;;;4974505;28;20170;-84
2021/12/01 07:53:41;;;;;;;1.40;1.30;;;10.10;99.90;;;;;;4974879;28;20177;-80
2021/12/01 07:56:07;;;;;;;1.40;1.13;;;10.20;99.90;;;;;;4957545;28;20209;-83
2021/12/01 07:58:32;;;;;;;1.63;1.52;;;10.00;99.90;;;;;;4974691;28;20170;-85
2021/12/01 08:00:58;;;;;;;1.30;1.20;;;10.00;99.90;;;;;;4975208;28;20256;-84
2021/12/01 08:03:24;;;;;;;2.42;1.92;;;10.00;99.90;;;;;;4975517;28;20150;-89
2021/12/01 08:05:50;;;;;;;1.65;1.50;;;10.00;99.90;;;;;;4942376;28;20268;-86
2021/12/01 08:08:15;;;;;;;1.60;1.50;;;10.00;99.90;;;;;;4975226;28;20158;-84
2021/12/01 08:10:41;;;;;;;1.20;1.10;;;10.00;99.90;;;;;;4973550;28;20184;-86
2021/12/01 08:13:07;;;;;;;1.20;1.10;;;10.10;99.90;;;;;;4958415;28;20166;-83
2021/12/01 08:15:33;;;;;;;1.42;1.33;;;10.10;99.90;;;;;;4975567;28;20206;-84
2021/12/01 08:17:59;;;;;;;2.08;1.30;;;10.00;99.90;;;;;;4975402;28;20162;-86
2021/12/01 08:20:25;;;;;;;1.42;1.33;;;10.10;99.90;;;;;;4975771;28;20190;-86
2021/12/01 08:22:52;;;;;;;2.35;2.15;;;10.10;99.90;;;;;;4958447;28;20900;-85
2021/12/01 08:25:17;;;;;;;1.67;1.58;;;10.00;99.90;;;;;;4976166;28;20174;-84
2021/12/01 08:27:43;;;;;;;1.88;1.77;;;10.20;99.90;;;;;;4974920;28;20316;-85
2021/12/01 08:30:09;;;;;;;1.83;1.70;;;10.20;99.90;;;;;;4976243;28;20177;-85
2021/12/01 08:32:35;;;;;;;2.03;1.80;;;10.20;99.90;;;;;;4976738;28;20241;-85
2021/12/01 08:35:02;;;;;;;1.75;1.65;;;10.30;99.90;;;;;;4974963;28;20518;-85
2021/12/01 08:37:27;;;;;;;1.67;1.58;;;10.30;99.90;;;;;;4975403;28;20190;-83
2021/12/01 08:39:53;;;;;;;3.28;1.70;;;10.30;99.90;;;;;;4988334;28;20253;-81
2021/12/01 08:42:21;;;;;;;1.90;1.80;;;10.30;99.90;;;;;;4987699;28;20245;-82
2021/12/01 08:44:48;;;;;;;2.80;1.73;;;10.40;99.90;;;;;;4988625;28;20166;-80
2021/12/01 08:47:16;;;;;;;2.40;2.20;;;10.50;99.90;;;;;;4989186;28;20242;-83
2021/12/01 08:49:42;;;;;;;1.50;1.40;;;10.50;99.90;;;;;;4990888;28;20221;-85
2021/12/01 08:52:08;;;;;;;1.65;1.48;;;10.50;99.90;;;;;;4993889;28;20174;-80
2021/12/01 08:54:34;;;;;;;1.58;1.48;;;10.60;99.90;;;;;;4969789;28;20228;-78
2021/12/01 08:57:00;;;;;;;1.40;1.30;;;10.60;99.90;;;;;;4976938;28;20194;-76
2021/12/01 08:59:26;;;;;;;3.85;1.20;;;10.50;99.90;;;;;;4976649;28;20205;-78
2021/12/01 09:01:51;;;;;;;1.55;1.45;;;10.40;99.90;;;;;;4970677;29;20163;-77
2021/12/01 09:04:18;;;;;;;1.50;1.40;;;10.40;99.90;;;;;;4971093;29;20162;-79
2021/12/01 09:06:43;;;;;;;1.38;1.27;;;10.40;99.90;;;;;;4970489;29;20199;-78
2021/12/01 09:09:09;;;;;;;4.18;1.33;;;10.30;99.90;;;;;;4985445;28;20541;-77
2021/12/01 09:11:35;;;;;;;1.65;1.55;;;10.40;99.90;;;;;;4990389;28;20173;-77
2021/12/01 09:14:00;;;;;;;1.45;1.35;;;10.50;99.90;;;;;;4989233;28;20205;-77
2021/12/01 09:16:27;;;;;;;1.60;1.50;;;10.50;99.90;;;;;;4989246;28;20197;-79
2021/12/01 09:18:54;;;;;;;1.55;1.42;;;10.60;99.90;;;;;;4978649;28;20170;-80
2021/12/01 09:21:21;;;;;;;1.52;1.42;;;10.70;99.90;;;;;;4957461;28;20190;-80
2021/12/01 09:23:46;;;;;;;1.55;1.42;;;10.70;99.90;;;;;;4962942;28;20691;-77
2021/12/01 09:26:12;;;;;;;1.08;1.02;;;10.70;99.90;;;;;;4962153;28;20226;-85
2021/12/01 09:28:37;;;;;;;1.40;1.30;;;10.70;99.90;;;;;;4958558;29;20171;-84
2021/12/01 09:31:04;;;;;;;3.65;1.30;;;10.70;99.90;;;;;;4962857;29;20258;-77
2021/12/01 09:33:30;;;;;;;2.00;1.67;;;10.70;99.90;;;;;;4962993;29;20178;-78
2021/12/01 09:35:56;;;;;;;1.90;1.45;;;10.80;99.90;;;;;;4963482;29;20214;-83
2021/12/01 09:38:22;;;;;;;2.13;1.58;;;10.80;99.90;;;;;;4969063;29;20173;-78
2021/12/01 09:40:53;;;;;;;1.63;1.27;;;10.80;99.90;;;;;;4942119;29;20697;-77
2021/12/01 09:43:22;;;;;;;12.73;1.00;;;10.40;99.90;;;;;;4957757;29;20175;-84
2021/12/01 09:45:48;;;;;;;0.75;0.75;;;10.30;99.90;;;;;;4956583;29;20187;-82
2021/12/01 09:48:14;;;;;;;4.22;1.17;;;10.30;99.90;;;;;;4957212;29;20626;-77
2021/12/01 09:50:40;;;;;;;5.65;1.23;;;10.20;99.90;;;;;;4956923;29;20197;-76
2021/12/01 09:53:06;;;;;;;1.55;0.85;;;10.20;99.90;;;;;;4957155;29;20171;-77
2021/12/01 09:55:32;;;;;;;2.88;1.10;;;10.20;99.90;;;;;;4957003;29;20233;-78
2021/12/01 09:58:11;;;;;;;2.58;0.98;;;10.20;99.90;;;;;;4956975;29;20205;-77
2021/12/01 10:00:38;;;;;;;2.03;1.35;;;10.20;99.90;;;;;;4956855;29;20659;-78
2021/12/01 10:03:05;;;;;;;1.85;0.98;;;10.30;99.90;;;;;;4939594;29;20175;-78
2021/12/01 10:05:46;;;;;;;1.73;1.05;;;10.30;99.90;;;;;;4956854;29;20519;-78
2021/12/01 10:08:20;;;;;;;2.70;1.40;;;10.30;99.90;;;;;;4939701;29;20549;-81
2021/12/01 10:10:46;;;;;;;2.65;0.88;;;10.40;99.90;;;;;;4956687;29;20181;-78
2021/12/01 10:13:12;;;;;;;7.55;1.45;;;10.20;99.90;;;;;;4957264;29;20178;-82
2021/12/01 10:15:38;;;;;;;5.45;0.95;;;10.20;99.90;;;;;;4957643;29;20222;-82
2021/12/01 10:18:15;;;;;;;2.80;0.80;;;10.20;99.90;;;;;;4957597;29;20186;-78
2021/12/01 10:20:43;;;;;;;3.05;0.90;;;10.00;99.90;;;;;;4957306;29;20535;-83
2021/12/01 10:23:16;;;;;;;5.07;1.00;;;10.00;99.90;;;;;;4957432;29;20277;-83
2021/12/01 10:25:43;;;;;;;1.10;0.98;;;10.10;99.90;;;;;;4956051;29;20711;-85
2021/12/01 10:28:29;;;;;;;4.50;0.95;;;10.20;99.90;;;;;;4957165;29;20171;-82
2021/12/01 10:30:55;;;;;;;2.40;1.00;;;10.20;99.90;;;;;;4957418;29;20178;-77
2021/12/01 10:33:21;;;;;;;3.28;1.30;;;10.20;99.90;;;;;;4939849;29;20266;-83
2021/12/01 10:35:46;;;;;;;3.70;1.45;;;10.30;99.90;;;;;;4957058;28;20296;-83
2021/12/01 10:38:13;;;;;;;1.83;0.90;;;10.30;99.90;;;;;;4956573;29;20166;-80
2021/12/01 10:40:40;;;;;;;5.50;1.77;;;10.30;99.90;;;;;;4955883;29;20673;-78
2021/12/01 10:43:09;;;;;;;7.55;1.13;;;10.20;99.90;;;;;;4956403;29;20171;-79
2021/12/01 10:45:40;;;;;;;4.57;0.93;;;10.10;99.90;;;;;;4956262;28;20174;-79
2021/12/01 10:48:08;;;;;;;4.90;1.10;;;10.00;99.90;;;;;;4956960;28;20525;-81
2021/12/01 10:50:40;;;;;;;2.60;1.38;;;10.00;99.90;;;;;;4973663;28;20181;-80
2021/12/01 10:53:14;;;;;;;1.75;0.80;;;10.10;99.90;;;;;;4974582;28;20232;-79
2021/12/01 10:55:54;;;;;;;5.03;1.08;;;10.20;99.90;;;;;;4974630;28;20213;-79
2021/12/01 10:58:21;;;;;;;3.47;0.80;;;10.20;99.90;;;;;;4974413;28;20177;-78
2021/12/01 11:00:49;;;;;;;2.78;1.02;;;10.20;99.90;;;;;;4974364;28;20185;-79
2021/12/01 11:03:26;;;;;;;6.00;0.88;;;10.20;99.90;;;;;;4974647;28;20177;-79
2021/12/01 11:05:54;;;;;;;1.98;0.60;;;10.20;99.90;;;;;;4974448;28;21368;-79
2021/12/01 11:08:25;;;;;;;3.58;1.13;;;10.10;99.90;;;;;;4974329;28;20711;-78
2021/12/01 11:11:14;;;;;;;1.52;0.77;;;10.10;99.90;;;;;;4975091;28;20170;-86
2021/12/01 11:13:47;;;;;;;5.88;0.80;;;10.10;99.90;;;;;;4976100;28;20170;-84
2021/12/01 11:16:15;;;;;;;2.67;0.70;;;10.10;99.90;;;;;;4976418;28;20202;-87
2021/12/01 11:18:43;;;;;;;1.33;0.52;;;10.20;99.90;;;;;;4975932;28;20272;-82
2021/12/01 11:21:11;;;;;;;4.78;0.90;;;10.10;99.90;;;;;;4974355;28;20166;-82
2021/12/01 11:23:43;;;;;;;3.60;1.35;;;10.20;99.90;;;;;;4958241;28;20607;-79
2021/12/01 11:26:21;;;;;;;3.50;1.10;;;10.20;99.90;;;;;;4974746;28;20186;-78
2021/12/01 11:28:53;;;;;;;6.25;0.80;;;10.30;99.90;;;;;;4960181;28;20280;-83
2021/12/01 11:31:22;;;;;;;5.13;1.70;;;10.40;99.90;;;;;;4964563;28;20261;-79
2021/12/01 11:33:52;;;;;;;15.85;6.15;;;10.40;99.90;;;;;;4936988;29;20202;-80
2021/12/01 11:36:21;;;;;;;14.15;4.85;;;10.50;99.90;;;;;;4954606;28;20293;-84
2021/12/01 11:38:51;;;;;;;9.98;4.05;;;10.60;99.90;;;;;;4940646;29;20174;-78
2021/12/01 11:41:18;;;;;;;2.80;1.38;;;10.60;99.90;;;;;;4958738;29;20174;-83
2021/12/01 11:43:44;;;;;;;1.02;0.77;;;10.60;99.90;;;;;;4956349;29;20170;-85
2021/12/01 11:46:11;;;;;;;1.63;0.98;;;10.50;99.90;;;;;;4956271;29;20186;-84
2021/12/01 11:48:45;;;;;;;2.15;1.23;;;10.70;99.90;;;;;;4938735;29;20621;-83
2021/12/01 11:51:20;;;;;;;3.10;0.90;;;10.70;99.90;;;;;;4955236;29;20257;-82
2021/12/01 11:53:51;;;;;;;2.75;1.00;;;10.80;99.90;;;;;;4954682;29;20174;-80
2021/12/01 11:56:33;;;;;;;3.22;2.53;;;10.80;99.90;;;;;;4954087;29;20202;-82
2021/12/01 11:59:06;;;;;;;2.15;1.10;;;10.90;99.90;;;;;;4955115;29;20177;-86
2021/12/01 12:01:35;;;;;;;6.68;1.23;;;10.90;99.90;;;;;;4955461;29;20695;-82
2021/12/01 12:04:01;;;;;;;2.78;1.02;;;10.80;99.90;;;;;;4955533;29;20171;-84
2021/12/01 12:06:26;;;;;;;3.42;1.52;;;10.80;99.90;;;;;;4954751;29;20189;-84
2021/12/01 12:09:07;;;;;;;0.85;0.52;;;10.70;99.90;;;;;;4938038;29;20178;-81
2021/12/01 12:11:44;;;;;;;1.95;0.60;;;10.60;99.90;;;;;;4955215;29;20648;-81
2021/12/01 12:14:16;;;;;;;3.38;0.70;;;10.60;99.90;;;;;;4936907;29;20664;-79
2021/12/01 12:17:05;;;;;;;7.55;1.13;;;10.60;99.90;;;;;;4954136;29;20193;-80
2021/12/01 12:19:46;;;;;;;1.75;0.50;;;10.70;99.90;;;;;;4954714;28;20704;-79
2021/12/01 12:22:17;;;;;;;1.33;0.80;;;10.70;99.90;;;;;;4962565;28;20648;-79
2021/12/01 12:24:49;;;;;;;2.08;1.23;;;10.60;99.90;;;;;;4972682;28;20184;-83
2021/12/01 12:27:35;;;;;;;5.20;1.67;;;10.70;99.90;;;;;;4973988;28;20190;-82
2021/12/01 12:30:11;;;;;;;4.78;0.80;;;10.60;99.90;;;;;;4973683;28;20257;-85
2021/12/01 12:32:37;;;;;;;4.05;0.80;;;10.60;99.90;;;;;;4972355;28;20655;-78
2021/12/01 12:35:08;;;;;;;1.35;0.85;;;10.60;99.90;;;;;;4945253;29;20252;-80
2021/12/01 12:37:35;;;;;;;2.97;1.20;;;10.60;99.90;;;;;;4954003;29;20185;-83
2021/12/01 12:40:05;;;;;;;2.40;0.90;;;10.60;99.90;;;;;;4953924;29;20177;-80
2021/12/01 12:42:31;;;;;;;9.68;3.45;;;10.70;99.90;;;;;;4953185;28;20253;-79
2021/12/01 12:44:58;;;;;;;3.90;1.75;;;10.70;99.90;;;;;;4937109;29;20208;-84
2021/12/01 12:47:30;;;;;;;2.08;1.80;;;10.80;99.90;;;;;;4953941;29;20191;-81
2021/12/01 12:50:09;;;;;;;6.45;1.60;;;10.90;99.90;;;;;;4953855;28;20206;-82
2021/12/01 12:52:38;;;;;;;2.63;1.60;;;10.70;99.90;;;;;;4954263;29;20167;-78
2021/12/01 12:55:09;;;;;;;16.02;3.30;;;10.60;99.90;;;;;;4953681;29;20214;-80
2021/12/01 12:57:56;;;;;;;5.43;2.83;;;10.60;99.90;;;;;;4941574;28;20288;-81
2021/12/01 13:00:34;;;;;;;2.90;1.17;;;10.80;99.90;;;;;;4974865;28;20256;-79
2021/12/01 13:03:21;;;;;;;10.55;2.38;;;11.00;99.90;;;;;;4977329;28;20205;-83
2021/12/01 13:05:48;;;;;;;5.68;3.03;;;11.00;99.90;;;;;;4976209;28;20317;-80
2021/12/01 13:08:39;;;;;;;3.67;2.80;;;10.80;99.90;;;;;;4976845;28;20513;-81